sensor_id;sensor_type;location;lat;lon;timestamp;P1;durP1;ratioP1;P2;durP2;ratioP2
20802;SDS011;10562;-33.856;151.182;2023-05-19T00:00:39;3.08;;;1.20;;
20802;SDS011;10562;-33.856;151.182;2023-05-19T00:03:12;2.00;;;1.25;;
20802;SDS011;10562;-33.856;151.182;2023-05-19T00:05:42;4.72;;;1.50;;
20802;SDS011;10562;-33.856;151.182;2023-05-19T00:08:13;5.03;;;1.40;;
20802;SDS011;10562;-33.856;151.182;2023-05-19T00:10:46;3.65;;;1.40;;
20802;SDS011;10562;-33.856;151.182;2023-05-19T00:13:17;2.05;;;1.20;;
20802;SDS011;10562;-33.856;151.182;2023-05-19T00:15:51;2.28;;;1.30;;
20802;SDS011;10562;-33.856;151.182;2023-05-19T00:18:22;4.53;;;1.30;;
20802;SDS011;10562;-33.856;151.182;2023-05-19T00:20:54;5.80;;;1.63;;
20802;SDS011;10562;-33.856;151.182;2023-05-19T00:23:25;4.93;;;1.60;;
20802;SDS011;10562;-33.856;151.182;2023-05-19T00:25:56;7.60;;;1.40;;
20802;SDS011;10562;-33.856;151.182;2023-05-19T00:28:27;3.10;;;1.17;;
20802;SDS011;10562;-33.856;151.182;2023-05-19T00:30:59;5.28;;;1.40;;
20802;SDS011;10562;-33.856;151.182;2023-05-19T00:33:31;3.38;;;1.30;;
20802;SDS011;10562;-33.856;151.182;2023-05-19T00:36:02;5.50;;;1.30;;
20802;SDS011;10562;-33.856;151.182;2023-05-19T00:38:33;6.97;;;1.60;;
20802;SDS011;10562;-33.856;151.182;2023-05-19T00:41:05;5.93;;;1.38;;
20802;SDS011;10562;-33.856;151.182;2023-05-19T00:43:37;2.22;;;1.30;;
20802;SDS011;10562;-33.856;151.182;2023-05-19T00:46:09;3.95;;;1.08;;
20802;SDS011;10562;-33.856;151.182;2023-05-19T00:48:40;2.45;;;1.05;;
20802;SDS011;10562;-33.856;151.182;2023-05-19T00:51:12;2.47;;;1.17;;
20802;SDS011;10562;-33.856;151.182;2023-05-19T00:53:43;4.40;;;1.15;;
20802;SDS011;10562;-33.856;151.182;2023-05-19T00:56:17;3.53;;;1.10;;
20802;SDS011;10562;-33.856;151.182;2023-05-19T00:58:49;2.17;;;1.25;;
20802;SDS011;10562;-33.856;151.182;2023-05-19T01:01:22;3.03;;;1.30;;
20802;SDS011;10562;-33.856;151.182;2023-05-19T01:03:53;2.63;;;1.30;;
20802;SDS011;10562;-33.856;151.182;2023-05-19T01:06:24;3.95;;;1.17;;
20802;SDS011;10562;-33.856;151.182;2023-05-19T01:08:55;3.10;;;1.13;;
20802;SDS011;10562;-33.856;151.182;2023-05-19T01:11:25;3.42;;;1.23;;
20802;SDS011;10562;-33.856;151.182;2023-05-19T01:13:56;3.00;;;1.10;;
20802;SDS011;10562;-33.856;151.182;2023-05-19T01:16:30;3.05;;;1.17;;
20802;SDS011;10562;-33.856;151.182;2023-05-19T01:19:05;3.40;;;1.15;;
20802;SDS011;10562;-33.856;151.182;2023-05-19T01:24:47;2.78;;;1.10;;
20802;SDS011;10562;-33.856;151.182;2023-05-19T01:30:46;3.58;;;0.93;;
20802;SDS011;10562;-33.856;151.182;2023-05-19T01:33:20;1.48;;;0.90;;
20802;SDS011;10562;-33.856;151.182;2023-05-19T01:35:52;1.40;;;0.90;;
20802;SDS011;10562;-33.856;151.182;2023-05-19T01:38:24;1.35;;;0.90;;
20802;SDS011;10562;-33.856;151.182;2023-05-19T01:40:56;2.58;;;0.80;;
20802;SDS011;10562;-33.856;151.182;2023-05-19T01:43:27;2.28;;;0.90;;
20802;SDS011;10562;-33.856;151.182;2023-05-19T01:46:01;2.17;;;0.65;;
20802;SDS011;10562;-33.856;151.182;2023-05-19T01:48:32;1.63;;;0.80;;
20802;SDS011;10562;-33.856;151.182;2023-05-19T01:51:02;2.50;;;0.80;;
20802;SDS011;10562;-33.856;151.182;2023-05-19T01:53:33;5.30;;;0.90;;
20802;SDS011;10562;-33.856;151.182;2023-05-19T01:56:04;22.08;;;11.05;;
20802;SDS011;10562;-33.856;151.182;2023-05-19T01:58:37;43.75;;;19.50;;
20802;SDS011;10562;-33.856;151.182;2023-05-19T02:01:18;65.65;;;28.60;;
20802;SDS011;10562;-33.856;151.182;2023-05-19T02:03:56;3.28;;;1.50;;
20802;SDS011;10562;-33.856;151.182;2023-05-19T02:06:39;14.45;;;6.47;;
20802;SDS011;10562;-33.856;151.182;2023-05-19T02:09:15;10.18;;;4.53;;
20802;SDS011;10562;-33.856;151.182;2023-05-19T02:11:53;3.10;;;1.20;;
20802;SDS011;10562;-33.856;151.182;2023-05-19T02:14:28;2.28;;;1.30;;
20802;SDS011;10562;-33.856;151.182;2023-05-19T02:17:03;2.13;;;1.25;;
20802;SDS011;10562;-33.856;151.182;2023-05-19T02:19:35;2.85;;;1.50;;
20802;SDS011;10562;-33.856;151.182;2023-05-19T02:22:07;2.25;;;1.20;;
20802;SDS011;10562;-33.856;151.182;2023-05-19T02:24:37;1.90;;;1.00;;
20802;SDS011;10562;-33.856;151.182;2023-05-19T02:27:09;2.58;;;0.90;;
20802;SDS011;10562;-33.856;151.182;2023-05-19T02:29:40;3.00;;;0.75;;
20802;SDS011;10562;-33.856;151.182;2023-05-19T02:32:13;1.77;;;0.90;;
20802;SDS011;10562;-33.856;151.182;2023-05-19T02:34:44;1.67;;;1.00;;
20802;SDS011;10562;-33.856;151.182;2023-05-19T02:37:15;2.75;;;0.90;;
20802;SDS011;10562;-33.856;151.182;2023-05-19T02:39:48;2.95;;;1.08;;
20802;SDS011;10562;-33.856;151.182;2023-05-19T02:42:19;2.45;;;0.90;;
20802;SDS011;10562;-33.856;151.182;2023-05-19T02:44:50;1.42;;;0.80;;
20802;SDS011;10562;-33.856;151.182;2023-05-19T02:47:23;3.40;;;0.90;;
20802;SDS011;10562;-33.856;151.182;2023-05-19T02:49:54;3.78;;;0.90;;
20802;SDS011;10562;-33.856;151.182;2023-05-19T02:52:25;1.65;;;0.90;;
20802;SDS011;10562;-33.856;151.182;2023-05-19T02:54:55;2.80;;;1.10;;
20802;SDS011;10562;-33.856;151.182;2023-05-19T02:57:29;3.08;;;1.02;;
20802;SDS011;10562;-33.856;151.182;2023-05-19T03:00:01;7.32;;;1.13;;
20802;SDS011;10562;-33.856;151.182;2023-05-19T03:02:36;4.10;;;0.90;;
20802;SDS011;10562;-33.856;151.182;2023-05-19T03:05:09;1.80;;;0.95;;
20802;SDS011;10562;-33.856;151.182;2023-05-19T03:07:40;2.67;;;0.82;;
20802;SDS011;10562;-33.856;151.182;2023-05-19T03:10:11;2.63;;;1.00;;
20802;SDS011;10562;-33.856;151.182;2023-05-19T03:12:41;2.08;;;0.80;;
20802;SDS011;10562;-33.856;151.182;2023-05-19T03:15:12;3.22;;;0.95;;
20802;SDS011;10562;-33.856;151.182;2023-05-19T03:17:45;2.85;;;1.17;;
20802;SDS011;10562;-33.856;151.182;2023-05-19T03:20:17;1.55;;;0.85;;
20802;SDS011;10562;-33.856;151.182;2023-05-19T03:22:48;2.53;;;1.10;;
20802;SDS011;10562;-33.856;151.182;2023-05-19T03:25:18;3.40;;;0.90;;
20802;SDS011;10562;-33.856;151.182;2023-05-19T03:27:49;2.90;;;0.82;;
20802;SDS011;10562;-33.856;151.182;2023-05-19T03:30:20;2.72;;;0.93;;
20802;SDS011;10562;-33.856;151.182;2023-05-19T03:32:52;2.95;;;0.90;;
20802;SDS011;10562;-33.856;151.182;2023-05-19T03:35:23;2.50;;;1.00;;
20802;SDS011;10562;-33.856;151.182;2023-05-19T03:37:54;1.83;;;1.00;;
20802;SDS011;10562;-33.856;151.182;2023-05-19T03:40:25;2.13;;;0.82;;
20802;SDS011;10562;-33.856;151.182;2023-05-19T03:42:55;1.88;;;0.80;;
20802;SDS011;10562;-33.856;151.182;2023-05-19T03:45:27;2.22;;;0.80;;
20802;SDS011;10562;-33.856;151.182;2023-05-19T03:48:00;1.70;;;0.70;;
20802;SDS011;10562;-33.856;151.182;2023-05-19T03:50:31;4.03;;;0.88;;
20802;SDS011;10562;-33.856;151.182;2023-05-19T03:53:03;1.80;;;0.70;;
20802;SDS011;10562;-33.856;151.182;2023-05-19T03:55:34;3.40;;;1.08;;
20802;SDS011;10562;-33.856;151.182;2023-05-19T03:58:05;1.98;;;0.80;;
20802;SDS011;10562;-33.856;151.182;2023-05-19T04:00:36;2.05;;;0.93;;
20802;SDS011;10562;-33.856;151.182;2023-05-19T04:03:08;1.77;;;0.80;;
20802;SDS011;10562;-33.856;151.182;2023-05-19T04:05:39;1.20;;;0.88;;
20802;SDS011;10562;-33.856;151.182;2023-05-19T04:08:10;2.63;;;0.80;;
20802;SDS011;10562;-33.856;151.182;2023-05-19T04:10:41;1.42;;;0.70;;
20802;SDS011;10562;-33.856;151.182;2023-05-19T04:13:12;0.98;;;0.70;;
20802;SDS011;10562;-33.856;151.182;2023-05-19T04:15:42;3.40;;;0.63;;
20802;SDS011;10562;-33.856;151.182;2023-05-19T04:18:15;1.20;;;0.82;;
20802;SDS011;10562;-33.856;151.182;2023-05-19T04:20:46;1.17;;;0.70;;
20802;SDS011;10562;-33.856;151.182;2023-05-19T04:23:17;2.65;;;1.00;;
20802;SDS011;10562;-33.856;151.182;2023-05-19T04:25:47;1.50;;;0.80;;
20802;SDS011;10562;-33.856;151.182;2023-05-19T04:28:19;3.33;;;0.90;;
20802;SDS011;10562;-33.856;151.182;2023-05-19T04:30:50;2.85;;;1.00;;
20802;SDS011;10562;-33.856;151.182;2023-05-19T04:33:25;3.00;;;0.85;;
20802;SDS011;10562;-33.856;151.182;2023-05-19T04:35:56;3.08;;;0.80;;
20802;SDS011;10562;-33.856;151.182;2023-05-19T04:38:33;5.30;;;0.90;;
20802;SDS011;10562;-33.856;151.182;2023-05-19T04:41:05;3.55;;;0.73;;
20802;SDS011;10562;-33.856;151.182;2023-05-19T04:43:37;3.75;;;0.82;;
20802;SDS011;10562;-33.856;151.182;2023-05-19T04:46:09;1.60;;;0.90;;
20802;SDS011;10562;-33.856;151.182;2023-05-19T04:48:42;1.00;;;0.80;;
20802;SDS011;10562;-33.856;151.182;2023-05-19T04:51:13;2.90;;;0.90;;
20802;SDS011;10562;-33.856;151.182;2023-05-19T04:53:44;2.92;;;0.70;;
20802;SDS011;10562;-33.856;151.182;2023-05-19T04:56:16;3.58;;;0.75;;
20802;SDS011;10562;-33.856;151.182;2023-05-19T04:58:47;1.98;;;0.80;;
20802;SDS011;10562;-33.856;151.182;2023-05-19T05:01:18;1.30;;;0.70;;
20802;SDS011;10562;-33.856;151.182;2023-05-19T05:03:53;3.58;;;0.70;;
20802;SDS011;10562;-33.856;151.182;2023-05-19T05:06:24;0.95;;;0.68;;
20802;SDS011;10562;-33.856;151.182;2023-05-19T05:08:54;1.67;;;0.80;;
20802;SDS011;10562;-33.856;151.182;2023-05-19T05:11:25;1.17;;;0.70;;
20802;SDS011;10562;-33.856;151.182;2023-05-19T05:13:56;2.15;;;0.60;;
20802;SDS011;10562;-33.856;151.182;2023-05-19T05:16:27;1.52;;;0.80;;
20802;SDS011;10562;-33.856;151.182;2023-05-19T05:19:01;2.33;;;0.63;;
20802;SDS011;10562;-33.856;151.182;2023-05-19T05:21:32;5.65;;;0.80;;
20802;SDS011;10562;-33.856;151.182;2023-05-19T05:24:04;1.77;;;0.60;;
20802;SDS011;10562;-33.856;151.182;2023-05-19T05:26:35;1.00;;;0.75;;
20802;SDS011;10562;-33.856;151.182;2023-05-19T05:29:06;0.68;;;0.68;;
20802;SDS011;10562;-33.856;151.182;2023-05-19T05:31:37;2.22;;;0.90;;
20802;SDS011;10562;-33.856;151.182;2023-05-19T05:34:10;3.15;;;0.90;;
20802;SDS011;10562;-33.856;151.182;2023-05-19T05:36:41;1.67;;;0.80;;
20802;SDS011;10562;-33.856;151.182;2023-05-19T05:39:11;1.55;;;0.70;;
20802;SDS011;10562;-33.856;151.182;2023-05-19T05:41:42;2.38;;;0.90;;
20802;SDS011;10562;-33.856;151.182;2023-05-19T05:44:13;1.30;;;0.73;;
20802;SDS011;10562;-33.856;151.182;2023-05-19T05:46:44;2.50;;;0.60;;
20802;SDS011;10562;-33.856;151.182;2023-05-19T05:49:20;3.17;;;0.90;;
20802;SDS011;10562;-33.856;151.182;2023-05-19T05:51:51;0.88;;;0.75;;
20802;SDS011;10562;-33.856;151.182;2023-05-19T05:54:22;1.17;;;0.80;;
20802;SDS011;10562;-33.856;151.182;2023-05-19T05:56:54;1.40;;;0.88;;
20802;SDS011;10562;-33.856;151.182;2023-05-19T05:59:24;2.88;;;0.90;;
20802;SDS011;10562;-33.856;151.182;2023-05-19T06:01:55;3.13;;;0.82;;
20802;SDS011;10562;-33.856;151.182;2023-05-19T06:04:28;0.70;;;0.70;;
20802;SDS011;10562;-33.856;151.182;2023-05-19T06:06:59;1.90;;;0.90;;
20802;SDS011;10562;-33.856;151.182;2023-05-19T06:09:29;1.15;;;0.80;;
20802;SDS011;10562;-33.856;151.182;2023-05-19T06:12:00;6.70;;;1.00;;
20802;SDS011;10562;-33.856;151.182;2023-05-19T06:14:31;1.75;;;0.70;;
20802;SDS011;10562;-33.856;151.182;2023-05-19T06:17:02;2.70;;;0.90;;
20802;SDS011;10562;-33.856;151.182;2023-05-19T06:19:35;2.03;;;0.80;;
20802;SDS011;10562;-33.856;151.182;2023-05-19T06:22:05;2.10;;;0.82;;
20802;SDS011;10562;-33.856;151.182;2023-05-19T06:24:36;2.22;;;1.02;;
20802;SDS011;10562;-33.856;151.182;2023-05-19T06:27:07;1.67;;;0.77;;
20802;SDS011;10562;-33.856;151.182;2023-05-19T06:29:37;2.03;;;0.70;;
20802;SDS011;10562;-33.856;151.182;2023-05-19T06:32:08;1.50;;;0.70;;
20802;SDS011;10562;-33.856;151.182;2023-05-19T06:34:41;2.30;;;0.90;;
20802;SDS011;10562;-33.856;151.182;2023-05-19T06:37:19;0.90;;;0.70;;
20802;SDS011;10562;-33.856;151.182;2023-05-19T06:39:51;2.38;;;0.85;;
20802;SDS011;10562;-33.856;151.182;2023-05-19T06:42:22;2.75;;;0.95;;
20802;SDS011;10562;-33.856;151.182;2023-05-19T06:44:54;1.13;;;0.80;;
20802;SDS011;10562;-33.856;151.182;2023-05-19T06:47:25;1.50;;;0.90;;
20802;SDS011;10562;-33.856;151.182;2023-05-19T06:49:57;2.35;;;0.70;;
20802;SDS011;10562;-33.856;151.182;2023-05-19T06:52:28;3.35;;;0.90;;
20802;SDS011;10562;-33.856;151.182;2023-05-19T06:54:59;2.45;;;0.88;;
20802;SDS011;10562;-33.856;151.182;2023-05-19T06:57:30;2.90;;;0.80;;
20802;SDS011;10562;-33.856;151.182;2023-05-19T07:00:01;3.40;;;1.17;;
20802;SDS011;10562;-33.856;151.182;2023-05-19T07:02:34;3.10;;;1.60;;
20802;SDS011;10562;-33.856;151.182;2023-05-19T07:05:07;3.28;;;1.48;;
20802;SDS011;10562;-33.856;151.182;2023-05-19T07:07:38;5.50;;;1.80;;
20802;SDS011;10562;-33.856;151.182;2023-05-19T07:10:09;5.22;;;1.60;;
20802;SDS011;10562;-33.856;151.182;2023-05-19T07:12:40;5.50;;;1.40;;
20802;SDS011;10562;-33.856;151.182;2023-05-19T07:15:10;6.18;;;1.95;;
20802;SDS011;10562;-33.856;151.182;2023-05-19T07:17:41;3.15;;;1.63;;
20802;SDS011;10562;-33.856;151.182;2023-05-19T07:20:14;5.68;;;1.88;;
20802;SDS011;10562;-33.856;151.182;2023-05-19T07:22:45;4.00;;;1.70;;
20802;SDS011;10562;-33.856;151.182;2023-05-19T07:25:16;4.97;;;1.75;;
20802;SDS011;10562;-33.856;151.182;2023-05-19T07:27:47;4.65;;;2.00;;
20802;SDS011;10562;-33.856;151.182;2023-05-19T07:30:17;6.80;;;2.00;;
20802;SDS011;10562;-33.856;151.182;2023-05-19T07:32:48;3.90;;;1.50;;
20802;SDS011;10562;-33.856;151.182;2023-05-19T07:35:21;6.88;;;2.10;;
20802;SDS011;10562;-33.856;151.182;2023-05-19T07:37:52;5.75;;;2.05;;
20802;SDS011;10562;-33.856;151.182;2023-05-19T07:40:22;4.93;;;1.90;;
20802;SDS011;10562;-33.856;151.182;2023-05-19T07:42:53;7.68;;;2.10;;
20802;SDS011;10562;-33.856;151.182;2023-05-19T07:45:24;5.28;;;2.30;;
20802;SDS011;10562;-33.856;151.182;2023-05-19T07:47:55;7.65;;;2.35;;
20802;SDS011;10562;-33.856;151.182;2023-05-19T07:50:28;7.80;;;2.40;;
20802;SDS011;10562;-33.856;151.182;2023-05-19T07:52:59;5.55;;;2.25;;
20802;SDS011;10562;-33.856;151.182;2023-05-19T07:55:29;5.18;;;2.28;;
20802;SDS011;10562;-33.856;151.182;2023-05-19T07:58:01;5.85;;;2.40;;
20802;SDS011;10562;-33.856;151.182;2023-05-19T08:00:31;7.07;;;2.50;;
20802;SDS011;10562;-33.856;151.182;2023-05-19T08:03:02;8.93;;;2.63;;
20802;SDS011;10562;-33.856;151.182;2023-05-19T08:05:35;8.20;;;2.55;;
20802;SDS011;10562;-33.856;151.182;2023-05-19T08:08:06;7.40;;;2.50;;
20802;SDS011;10562;-33.856;151.182;2023-05-19T08:10:37;11.95;;;2.90;;
20802;SDS011;10562;-33.856;151.182;2023-05-19T08:13:07;10.05;;;3.58;;
20802;SDS011;10562;-33.856;151.182;2023-05-19T08:15:38;8.20;;;3.17;;
20802;SDS011;10562;-33.856;151.182;2023-05-19T08:18:09;9.25;;;2.88;;
20802;SDS011;10562;-33.856;151.182;2023-05-19T08:20:41;8.25;;;3.20;;
20802;SDS011;10562;-33.856;151.182;2023-05-19T08:23:12;11.45;;;3.72;;
20802;SDS011;10562;-33.856;151.182;2023-05-19T08:25:43;14.05;;;4.18;;
20802;SDS011;10562;-33.856;151.182;2023-05-19T08:28:14;9.18;;;3.25;;
20802;SDS011;10562;-33.856;151.182;2023-05-19T08:30:44;13.52;;;5.90;;
20802;SDS011;10562;-33.856;151.182;2023-05-19T08:33:15;12.93;;;5.35;;
20802;SDS011;10562;-33.856;151.182;2023-05-19T08:35:48;9.07;;;4.43;;
20802;SDS011;10562;-33.856;151.182;2023-05-19T08:38:20;8.15;;;3.80;;
20802;SDS011;10562;-33.856;151.182;2023-05-19T08:40:51;10.27;;;4.15;;
20802;SDS011;10562;-33.856;151.182;2023-05-19T08:43:23;13.20;;;4.47;;
20802;SDS011;10562;-33.856;151.182;2023-05-19T08:45:54;12.55;;;4.05;;
20802;SDS011;10562;-33.856;151.182;2023-05-19T08:48:27;10.20;;;3.92;;
20802;SDS011;10562;-33.856;151.182;2023-05-19T08:51:03;10.82;;;3.45;;
20802;SDS011;10562;-33.856;151.182;2023-05-19T08:53:53;6.88;;;3.22;;
20802;SDS011;10562;-33.856;151.182;2023-05-19T08:56:31;11.15;;;3.60;;
20802;SDS011;10562;-33.856;151.182;2023-05-19T08:59:02;11.40;;;3.83;;
20802;SDS011;10562;-33.856;151.182;2023-05-19T09:01:34;12.93;;;4.53;;
20802;SDS011;10562;-33.856;151.182;2023-05-19T09:04:05;11.38;;;4.30;;
20802;SDS011;10562;-33.856;151.182;2023-05-19T09:06:38;21.92;;;6.20;;
20802;SDS011;10562;-33.856;151.182;2023-05-19T09:09:10;17.80;;;5.70;;
20802;SDS011;10562;-33.856;151.182;2023-05-19T09:11:41;16.10;;;5.13;;
20802;SDS011;10562;-33.856;151.182;2023-05-19T09:14:14;11.98;;;4.70;;
20802;SDS011;10562;-33.856;151.182;2023-05-19T09:16:45;9.70;;;4.32;;
20802;SDS011;10562;-33.856;151.182;2023-05-19T09:19:17;13.75;;;5.80;;
20802;SDS011;10562;-33.856;151.182;2023-05-19T09:21:58;19.48;;;6.90;;
20802;SDS011;10562;-33.856;151.182;2023-05-19T09:24:30;20.50;;;7.03;;
20802;SDS011;10562;-33.856;151.182;2023-05-19T09:27:03;19.48;;;6.60;;
20802;SDS011;10562;-33.856;151.182;2023-05-19T09:29:34;14.73;;;5.18;;
20802;SDS011;10562;-33.856;151.182;2023-05-19T09:32:05;14.77;;;5.57;;
20802;SDS011;10562;-33.856;151.182;2023-05-19T09:34:39;18.70;;;6.72;;
20802;SDS011;10562;-33.856;151.182;2023-05-19T09:37:13;20.58;;;7.10;;
20802;SDS011;10562;-33.856;151.182;2023-05-19T09:39:43;16.42;;;6.88;;
20802;SDS011;10562;-33.856;151.182;2023-05-19T09:42:19;22.30;;;7.55;;
20802;SDS011;10562;-33.856;151.182;2023-05-19T09:45:01;16.20;;;7.15;;
20802;SDS011;10562;-33.856;151.182;2023-05-19T09:47:35;19.23;;;7.40;;
20802;SDS011;10562;-33.856;151.182;2023-05-19T09:50:07;15.50;;;7.22;;
20802;SDS011;10562;-33.856;151.182;2023-05-19T09:52:41;23.17;;;8.57;;
20802;SDS011;10562;-33.856;151.182;2023-05-19T09:55:12;17.58;;;7.43;;
20802;SDS011;10562;-33.856;151.182;2023-05-19T09:57:45;17.80;;;7.30;;
20802;SDS011;10562;-33.856;151.182;2023-05-19T10:00:17;17.42;;;7.88;;
20802;SDS011;10562;-33.856;151.182;2023-05-19T10:02:50;19.58;;;6.97;;
20802;SDS011;10562;-33.856;151.182;2023-05-19T10:05:22;18.08;;;6.25;;
20802;SDS011;10562;-33.856;151.182;2023-05-19T10:07:56;18.20;;;6.32;;
20802;SDS011;10562;-33.856;151.182;2023-05-19T10:10:28;21.27;;;6.88;;
20802;SDS011;10562;-33.856;151.182;2023-05-19T10:12:59;15.65;;;6.10;;
20802;SDS011;10562;-33.856;151.182;2023-05-19T10:15:31;16.75;;;6.05;;
20802;SDS011;10562;-33.856;151.182;2023-05-19T10:18:06;19.50;;;5.75;;
20802;SDS011;10562;-33.856;151.182;2023-05-19T10:20:43;14.77;;;5.57;;
20802;SDS011;10562;-33.856;151.182;2023-05-19T10:23:16;16.13;;;6.28;;
20802;SDS011;10562;-33.856;151.182;2023-05-19T10:25:47;15.90;;;5.82;;
20802;SDS011;10562;-33.856;151.182;2023-05-19T10:28:20;17.92;;;5.68;;
20802;SDS011;10562;-33.856;151.182;2023-05-19T10:30:53;14.70;;;5.47;;
20802;SDS011;10562;-33.856;151.182;2023-05-19T10:33:30;11.40;;;5.50;;
20802;SDS011;10562;-33.856;151.182;2023-05-19T10:36:20;13.75;;;5.88;;
20802;SDS011;10562;-33.856;151.182;2023-05-19T10:39:05;16.75;;;6.38;;
20802;SDS011;10562;-33.856;151.182;2023-05-19T10:41:40;14.00;;;6.47;;
20802;SDS011;10562;-33.856;151.182;2023-05-19T10:44:27;14.15;;;5.90;;
20802;SDS011;10562;-33.856;151.182;2023-05-19T10:47:13;12.10;;;5.22;;
20802;SDS011;10562;-33.856;151.182;2023-05-19T10:49:51;14.73;;;5.60;;
20802;SDS011;10562;-33.856;151.182;2023-05-19T10:52:22;12.55;;;5.43;;
20802;SDS011;10562;-33.856;151.182;2023-05-19T10:54:57;13.13;;;5.63;;
20802;SDS011;10562;-33.856;151.182;2023-05-19T10:57:29;13.88;;;5.60;;
20802;SDS011;10562;-33.856;151.182;2023-05-19T11:00:02;13.43;;;5.78;;
20802;SDS011;10562;-33.856;151.182;2023-05-19T11:02:53;13.50;;;6.05;;
20802;SDS011;10562;-33.856;151.182;2023-05-19T11:05:39;15.35;;;6.70;;
20802;SDS011;10562;-33.856;151.182;2023-05-19T11:08:11;14.15;;;6.68;;
20802;SDS011;10562;-33.856;151.182;2023-05-19T11:10:45;14.18;;;6.72;;
20802;SDS011;10562;-33.856;151.182;2023-05-19T11:13:19;11.25;;;6.30;;
20802;SDS011;10562;-33.856;151.182;2023-05-19T11:15:50;13.13;;;6.80;;
20802;SDS011;10562;-33.856;151.182;2023-05-19T11:18:21;13.52;;;7.93;;
20802;SDS011;10562;-33.856;151.182;2023-05-19T11:20:54;13.85;;;8.15;;
20802;SDS011;10562;-33.856;151.182;2023-05-19T11:23:29;11.70;;;7.80;;
20802;SDS011;10562;-33.856;151.182;2023-05-19T11:26:09;17.23;;;8.30;;
20802;SDS011;10562;-33.856;151.182;2023-05-19T11:28:40;15.05;;;9.85;;
20802;SDS011;10562;-33.856;151.182;2023-05-19T11:31:11;15.50;;;9.70;;
20802;SDS011;10562;-33.856;151.182;2023-05-19T11:33:42;20.58;;;10.35;;
20802;SDS011;10562;-33.856;151.182;2023-05-19T11:36:12;14.32;;;9.98;;
20802;SDS011;10562;-33.856;151.182;2023-05-19T11:38:43;17.75;;;10.43;;
20802;SDS011;10562;-33.856;151.182;2023-05-19T11:41:17;17.98;;;11.15;;
20802;SDS011;10562;-33.856;151.182;2023-05-19T11:43:48;18.95;;;11.95;;
20802;SDS011;10562;-33.856;151.182;2023-05-19T11:46:19;18.55;;;10.93;;
20802;SDS011;10562;-33.856;151.182;2023-05-19T11:48:50;15.25;;;11.50;;
20802;SDS011;10562;-33.856;151.182;2023-05-19T11:51:23;18.50;;;12.52;;
20802;SDS011;10562;-33.856;151.182;2023-05-19T11:53:53;15.88;;;11.90;;
20802;SDS011;10562;-33.856;151.182;2023-05-19T11:56:26;16.92;;;12.27;;
20802;SDS011;10562;-33.856;151.182;2023-05-19T11:59:03;18.70;;;12.30;;
20802;SDS011;10562;-33.856;151.182;2023-05-19T12:01:33;18.38;;;12.48;;
20802;SDS011;10562;-33.856;151.182;2023-05-19T12:04:07;21.05;;;13.98;;
20802;SDS011;10562;-33.856;151.182;2023-05-19T12:06:38;18.10;;;14.93;;
20802;SDS011;10562;-33.856;151.182;2023-05-19T12:09:09;18.27;;;14.65;;
20802;SDS011;10562;-33.856;151.182;2023-05-19T12:11:42;21.35;;;16.63;;
20802;SDS011;10562;-33.856;151.182;2023-05-19T12:14:13;24.60;;;18.23;;
20802;SDS011;10562;-33.856;151.182;2023-05-19T12:16:44;22.40;;;17.50;;
20802;SDS011;10562;-33.856;151.182;2023-05-19T12:19:17;23.00;;;18.45;;
20802;SDS011;10562;-33.856;151.182;2023-05-19T12:21:50;22.63;;;19.20;;
20802;SDS011;10562;-33.856;151.182;2023-05-19T12:24:23;21.55;;;18.67;;
20802;SDS011;10562;-33.856;151.182;2023-05-19T12:27:05;26.58;;;18.90;;
20802;SDS011;10562;-33.856;151.182;2023-05-19T12:29:39;21.83;;;18.42;;
20802;SDS011;10562;-33.856;151.182;2023-05-19T12:32:10;21.73;;;15.45;;
20802;SDS011;10562;-33.856;151.182;2023-05-19T12:34:41;19.63;;;15.32;;
20802;SDS011;10562;-33.856;151.182;2023-05-19T12:37:13;19.33;;;14.57;;
20802;SDS011;10562;-33.856;151.182;2023-05-19T12:39:44;18.05;;;12.27;;
20802;SDS011;10562;-33.856;151.182;2023-05-19T12:42:18;13.70;;;10.82;;
20802;SDS011;10562;-33.856;151.182;2023-05-19T12:44:49;18.55;;;11.30;;
20802;SDS011;10562;-33.856;151.182;2023-05-19T12:47:27;18.10;;;10.77;;
20802;SDS011;10562;-33.856;151.182;2023-05-19T12:50:03;17.80;;;11.60;;
20802;SDS011;10562;-33.856;151.182;2023-05-19T12:52:40;18.17;;;10.00;;
20802;SDS011;10562;-33.856;151.182;2023-05-19T12:55:12;13.48;;;10.05;;
20802;SDS011;10562;-33.856;151.182;2023-05-19T12:57:47;16.95;;;10.40;;
20802;SDS011;10562;-33.856;151.182;2023-05-19T13:00:23;16.40;;;11.68;;
20802;SDS011;10562;-33.856;151.182;2023-05-19T13:02:57;15.05;;;12.32;;
20802;SDS011;10562;-33.856;151.182;2023-05-19T13:05:30;16.88;;;13.18;;
20802;SDS011;10562;-33.856;151.182;2023-05-19T13:08:04;18.70;;;12.32;;
20802;SDS011;10562;-33.856;151.182;2023-05-19T13:10:35;15.02;;;10.90;;
20802;SDS011;10562;-33.856;151.182;2023-05-19T13:13:10;15.55;;;9.88;;
20802;SDS011;10562;-33.856;151.182;2023-05-19T13:15:43;14.70;;;10.27;;
20802;SDS011;10562;-33.856;151.182;2023-05-19T13:18:15;14.30;;;9.98;;
20802;SDS011;10562;-33.856;151.182;2023-05-19T13:20:46;12.32;;;9.50;;
20802;SDS011;10562;-33.856;151.182;2023-05-19T13:23:18;14.60;;;9.70;;
20802;SDS011;10562;-33.856;151.182;2023-05-19T13:25:48;12.93;;;9.15;;
20802;SDS011;10562;-33.856;151.182;2023-05-19T13:28:21;9.98;;;8.02;;
20802;SDS011;10562;-33.856;151.182;2023-05-19T13:30:52;11.90;;;7.95;;
20802;SDS011;10562;-33.856;151.182;2023-05-19T13:33:23;9.90;;;8.18;;
20802;SDS011;10562;-33.856;151.182;2023-05-19T13:35:53;10.30;;;7.60;;
20802;SDS011;10562;-33.856;151.182;2023-05-19T13:38:24;13.10;;;7.45;;
20802;SDS011;10562;-33.856;151.182;2023-05-19T13:40:55;14.68;;;7.88;;
20802;SDS011;10562;-33.856;151.182;2023-05-19T13:43:28;10.32;;;8.05;;
20802;SDS011;10562;-33.856;151.182;2023-05-19T13:45:59;11.75;;;7.80;;
20802;SDS011;10562;-33.856;151.182;2023-05-19T13:48:31;13.32;;;8.05;;
20802;SDS011;10562;-33.856;151.182;2023-05-19T13:51:02;12.48;;;8.35;;
20802;SDS011;10562;-33.856;151.182;2023-05-19T13:53:33;10.55;;;8.15;;
20802;SDS011;10562;-33.856;151.182;2023-05-19T13:56:04;16.35;;;8.75;;
20802;SDS011;10562;-33.856;151.182;2023-05-19T13:58:37;10.82;;;7.60;;
20802;SDS011;10562;-33.856;151.182;2023-05-19T14:01:08;12.75;;;7.90;;
20802;SDS011;10562;-33.856;151.182;2023-05-19T14:03:38;13.00;;;8.57;;
20802;SDS011;10562;-33.856;151.182;2023-05-19T14:06:09;12.23;;;8.85;;
20802;SDS011;10562;-33.856;151.182;2023-05-19T14:08:40;11.55;;;7.95;;
20802;SDS011;10562;-33.856;151.182;2023-05-19T14:11:16;12.38;;;7.50;;
20802;SDS011;10562;-33.856;151.182;2023-05-19T14:13:50;9.85;;;6.85;;
20802;SDS011;10562;-33.856;151.182;2023-05-19T14:16:21;9.98;;;6.65;;
20802;SDS011;10562;-33.856;151.182;2023-05-19T14:18:53;9.68;;;6.45;;
20802;SDS011;10562;-33.856;151.182;2023-05-19T14:21:24;11.30;;;6.35;;
20802;SDS011;10562;-33.856;151.182;2023-05-19T14:23:55;9.40;;;6.25;;
20802;SDS011;10562;-33.856;151.182;2023-05-19T14:26:26;9.23;;;6.40;;
20802;SDS011;10562;-33.856;151.182;2023-05-19T14:28:59;11.00;;;6.95;;
20802;SDS011;10562;-33.856;151.182;2023-05-19T14:31:29;9.95;;;6.30;;
20802;SDS011;10562;-33.856;151.182;2023-05-19T14:34:01;9.20;;;6.25;;
20802;SDS011;10562;-33.856;151.182;2023-05-19T14:36:32;8.35;;;5.47;;
20802;SDS011;10562;-33.856;151.182;2023-05-19T14:39:03;7.93;;;5.72;;